Time;durP1;ratioP1;P1;durP2;ratioP2;P2;SDS_P1;SDS_P2;PMS_P1;PMS_P2;Temp;Humidity;BMP_temperature;BMP_pressure;BME280_temperature;BME280_humidity;BME280_pressure;Samples;Min_cycle;Max_cycle;Signal;HPM_P1;HPM_P2
2021/07/18 00:01:10;;;;;;;8.43;6.20;;;;;;;18.54;100.00;97496.41;5071523;28;20163;-78
2021/07/18 00:03:36;;;;;;;11.38;5.80;;;;;;;18.73;100.00;97499.25;5071088;28;20032;-79
2021/07/18 00:06:01;;;;;;;9.55;5.78;;;;;;;18.84;100.00;97488.41;5070704;28;20032;-78
2021/07/18 00:08:27;;;;;;;7.18;5.53;;;;;;;18.78;100.00;97473.22;5070887;28;20032;-78
2021/07/18 00:10:53;;;;;;;7.45;5.22;;;;;;;18.84;100.00;97478.13;5070764;28;21685;-78
2021/07/18 00:13:19;;;;;;;9.00;6.00;;;;;;;18.75;100.00;97480.28;5071083;28;20028;-78
2021/07/18 00:15:46;;;;;;;11.38;9.82;;;;;;;18.63;100.00;97485.94;5071100;28;20055;-78
2021/07/18 00:18:12;;;;;;;19.55;12.82;;;;;;;18.61;100.00;97474.41;5070759;28;20025;-81
2021/07/18 00:20:37;;;;;;;17.05;14.18;;;;;;;18.84;100.00;97478.13;5070975;28;20032;-80
2021/07/18 00:23:03;;;;;;;20.42;15.45;;;;;;;18.73;100.00;97477.88;5070927;28;20036;-80
2021/07/18 00:25:28;;;;;;;19.90;13.05;;;;;;;18.64;100.00;97474.50;5070447;28;20021;-79
2021/07/18 00:27:54;;;;;;;12.55;9.45;;;;;;;18.29;100.00;97484.69;5070555;28;20040;-78
2021/07/18 00:30:20;;;;;;;9.82;7.70;;;;;;;18.20;100.00;97481.25;5070882;28;20405;-79
2021/07/18 00:32:45;;;;;;;17.00;8.00;;;;;;;18.07;100.00;97477.75;5070160;28;20047;-80
2021/07/18 00:35:11;;;;;;;9.25;7.55;;;;;;;18.07;100.00;97488.84;5070575;28;20059;-82
2021/07/18 00:37:37;;;;;;;16.60;9.13;;;;;;;18.10;100.00;97499.22;5078706;28;20393;-80
2021/07/18 00:40:05;;;;;;;9.30;7.90;;;;;;;18.10;100.00;97501.19;5082969;28;20381;-80
2021/07/18 00:42:31;;;;;;;13.13;8.70;;;;;;;18.11;100.00;97495.28;5072940;28;20028;-82
2021/07/18 00:44:56;;;;;;;13.18;9.05;;;;;;;18.26;100.00;97495.66;5071795;28;20028;-79
2021/07/18 00:47:23;;;;;;;10.88;6.68;;;;;;;18.48;100.00;97506.13;5070141;28;20024;-79
2021/07/18 00:49:49;;;;;;;9.60;8.43;;;;;;;18.39;100.00;97502.72;5070136;28;20029;-81
2021/07/18 00:52:14;;;;;;;11.23;10.07;;;;;;;18.36;100.00;97489.56;5071511;28;20050;-81
2021/07/18 00:54:40;;;;;;;17.45;10.57;;;;;;;18.57;100.00;97495.69;5069905;28;20063;-80
2021/07/18 00:57:06;;;;;;;16.35;9.32;;;;;;;18.58;100.00;97500.88;5069779;28;20081;-78
2021/07/18 00:59:31;;;;;;;10.40;8.07;;;;;;;18.54;100.00;97486.13;5071686;28;20040;-81
2021/07/18 01:01:57;;;;;;;9.20;6.93;;;;;;;18.59;100.00;97505.25;5086105;28;20016;-80
2021/07/18 01:04:23;;;;;;;9.63;7.78;;;;;;;18.63;100.00;97500.59;5083449;28;20047;-81
2021/07/18 01:06:48;;;;;;;13.50;8.43;;;;;;;18.65;100.00;97483.63;5072406;28;20178;-77
2021/07/18 01:09:14;;;;;;;10.80;8.05;;;;;;;18.64;100.00;97482.00;5069613;28;20021;-78
2021/07/18 01:11:39;;;;;;;8.25;7.40;;;;;;;18.45;100.00;97482.69;5078427;28;20468;-78
2021/07/18 01:14:05;;;;;;;14.63;7.25;;;;;;;18.43;100.00;97498.06;5080088;28;20025;-78
2021/07/18 01:16:31;;;;;;;9.55;7.38;;;;;;;18.53;100.00;97494.78;5085653;28;20177;-80
2021/07/18 01:18:57;;;;;;;12.88;7.53;;;;;;;18.76;100.00;97489.41;5083107;28;20449;-81
2021/07/18 01:21:24;;;;;;;16.08;7.53;;;;;;;18.65;100.00;97494.69;5079782;28;20020;-80
2021/07/18 01:23:50;;;;;;;10.77;7.97;;;;;;;18.59;100.00;97488.63;5085696;28;20077;-80
2021/07/18 01:26:16;;;;;;;9.25;7.30;;;;;;;18.63;100.00;97497.03;5076878;28;20036;-82
2021/07/18 01:28:41;;;;;;;16.13;8.45;;;;;;;18.64;100.00;97496.66;5073206;28;20033;-80
2021/07/18 01:31:07;;;;;;;8.77;6.95;;;;;;;18.78;100.00;97489.84;5079708;28;21293;-79
2021/07/18 01:33:33;;;;;;;8.32;6.60;;;;;;;18.78;100.00;97490.66;5085362;28;20127;-78
2021/07/18 01:35:59;;;;;;;10.05;7.53;;;;;;;18.60;100.00;97468.09;5083851;28;20117;-79
2021/07/18 01:38:25;;;;;;;10.50;8.45;;;;;;;18.67;100.00;97484.03;5079220;28;20123;-79
2021/07/18 01:40:50;;;;;;;10.80;5.95;;;;;;;18.70;100.00;97478.59;5060681;28;20435;-78
2021/07/18 01:43:17;;;;;;;11.55;7.75;;;;;;;18.85;100.00;97487.25;5076779;28;20643;-79
2021/07/18 01:45:42;;;;;;;10.57;8.27;;;;;;;18.90;100.00;97481.41;5076149;28;20056;-80
2021/07/18 01:48:08;;;;;;;9.93;8.35;;;;;;;18.85;100.00;97470.63;5077524;28;20063;-80
2021/07/18 01:50:34;;;;;;;14.55;9.20;;;;;;;18.73;100.00;97475.09;5067229;28;20025;-79
2021/07/18 01:53:00;;;;;;;18.83;9.80;;;;;;;18.62;100.00;97468.50;5070003;28;20029;-80
2021/07/18 01:55:25;;;;;;;17.55;8.32;;;;;;;18.79;100.00;97469.31;5068476;28;20059;-79
2021/07/18 01:57:51;;;;;;;21.17;11.05;;;;;;;18.67;100.00;97467.41;5069887;28;21543;-78
2021/07/18 02:00:17;;;;;;;15.80;9.98;;;;;;;18.78;100.00;97473.22;5068811;28;20029;-79
2021/07/18 02:02:48;;;;;;;12.70;8.70;;;;;;;18.73;100.00;97471.56;5068073;28;20028;-79
2021/07/18 02:05:14;;;;;;;10.43;8.13;;;;;;;18.85;100.00;97474.22;5068579;28;20071;-78
2021/07/18 02:07:41;;;;;;;19.17;9.13;;;;;;;18.60;100.00;97467.28;5074474;28;20072;-79
2021/07/18 02:10:07;;;;;;;12.23;8.93;;;;;;;18.62;100.00;97459.41;5077594;28;20027;-78
2021/07/18 02:12:33;;;;;;;14.73;9.68;;;;;;;18.66;100.00;97449.22;5078776;28;20008;-77
2021/07/18 02:14:58;;;;;;;21.80;9.40;;;;;;;18.60;100.00;97445.09;5077712;28;20020;-78
2021/07/18 02:17:24;;;;;;;12.32;8.43;;;;;;;18.75;100.00;97435.16;5077868;28;20016;-77
2021/07/18 02:19:49;;;;;;;12.20;8.07;;;;;;;18.61;100.00;97441.16;5078466;28;20103;-78
2021/07/18 02:22:15;;;;;;;12.30;8.13;;;;;;;18.64;100.00;97445.97;5076545;28;20835;-78
2021/07/18 02:24:40;;;;;;;10.63;7.68;;;;;;;18.61;100.00;97446.69;5076499;28;20702;-78
2021/07/18 02:27:07;;;;;;;14.45;7.72;;;;;;;18.47;100.00;97440.81;5078362;28;20047;-78
2021/07/18 02:29:33;;;;;;;9.73;6.47;;;;;;;18.41;100.00;97454.13;5078265;28;20107;-79
2021/07/18 02:31:58;;;;;;;9.82;7.00;;;;;;;18.29;100.00;97445.09;5078360;28;20114;-79
2021/07/18 02:34:24;;;;;;;9.00;6.72;;;;;;;18.43;100.00;97459.28;5086675;28;20126;-78
2021/07/18 02:36:49;;;;;;;13.13;8.93;;;;;;;18.41;100.00;97458.84;5088101;28;20020;-81
2021/07/18 02:39:15;;;;;;;9.43;6.75;;;;;;;18.19;100.00;97446.44;5087785;28;20481;-80
2021/07/18 02:41:41;;;;;;;11.52;10.20;;;;;;;18.20;100.00;97459.13;5088858;28;20031;-80
2021/07/18 02:44:07;;;;;;;10.88;7.40;;;;;;;18.10;100.00;97457.72;5082407;28;20024;-79
2021/07/18 02:46:33;;;;;;;13.80;8.27;;;;;;;18.07;100.00;97472.22;5078446;28;20431;-82
2021/07/18 02:48:58;;;;;;;13.55;7.88;;;;;;;18.04;100.00;97464.63;5078152;28;20031;-79
2021/07/18 02:51:24;;;;;;;11.15;7.78;;;;;;;18.06;100.00;97459.56;5078092;28;20103;-79
2021/07/18 02:53:50;;;;;;;10.80;6.55;;;;;;;18.05;100.00;97457.16;5077651;28;20766;-78
2021/07/18 02:56:15;;;;;;;10.43;6.57;;;;;;;18.15;100.00;97468.50;5077044;28;20020;-83
2021/07/18 02:58:40;;;;;;;9.27;7.13;;;;;;;18.12;100.00;97463.69;5078435;28;20410;-80
2021/07/18 03:01:06;;;;;;;9.30;6.35;;;;;;;18.03;100.00;97459.47;5076049;28;20025;-78
2021/07/18 03:03:31;;;;;;;13.13;7.13;;;;;;;18.15;100.00;97473.22;5078551;28;20029;-81
2021/07/18 03:05:56;;;;;;;14.70;7.68;;;;;;;18.16;100.00;97466.53;5078923;28;21491;-79
2021/07/18 03:08:22;;;;;;;13.52;6.88;;;;;;;18.17;100.00;97466.16;5079719;28;20050;-79
2021/07/18 03:10:47;;;;;;;10.77;6.88;;;;;;;18.25;100.00;97466.34;5076922;28;20039;-80
2021/07/18 03:13:13;;;;;;;8.80;6.80;;;;;;;18.19;100.00;97463.06;5077233;28;20107;-80
2021/07/18 03:15:38;;;;;;;9.07;6.95;;;;;;;18.22;100.00;97467.06;5078174;28;20024;-82
2021/07/18 03:18:06;;;;;;;12.38;6.25;;;;;;;18.33;100.00;97468.13;5078919;28;20484;-79
2021/07/18 03:20:32;;;;;;;10.65;7.00;;;;;;;18.25;100.00;97458.06;5085072;28;20021;-81
2021/07/18 03:22:57;;;;;;;11.73;7.15;;;;;;;18.23;100.00;97463.16;5076510;28;20035;-79
2021/07/18 03:25:23;;;;;;;10.60;7.28;;;;;;;18.18;100.00;97456.72;5078344;28;20574;-79
2021/07/18 03:27:48;;;;;;;12.38;6.85;;;;;;;18.16;100.00;97461.81;5077096;28;20115;-79
2021/07/18 03:30:16;;;;;;;10.73;6.30;;;;;;;18.23;100.00;97455.63;5077370;28;20027;-78
2021/07/18 03:32:41;;;;;;;11.43;6.03;;;;;;;18.20;100.00;97451.63;5078625;28;20032;-78
2021/07/18 03:35:08;;;;;;;7.47;5.90;;;;;;;18.20;100.00;97443.31;5076376;28;20465;-78
2021/07/18 03:37:34;;;;;;;13.98;5.97;;;;;;;18.30;100.00;97455.00;5079807;28;20496;-78
2021/07/18 03:40:00;;;;;;;10.57;5.70;;;;;;;18.28;100.00;97449.03;5082422;28;20573;-79
2021/07/18 03:42:25;;;;;;;5.28;4.78;;;;;;;18.38;100.00;97437.41;5079357;28;20022;-78
2021/07/18 03:44:51;;;;;;;6.28;4.78;;;;;;;18.35;100.00;97441.72;5079901;28;20439;-79
2021/07/18 03:47:16;;;;;;;15.23;5.90;;;;;;;18.47;100.00;97435.25;5078279;28;20392;-78
2021/07/18 03:49:41;;;;;;;9.82;5.13;;;;;;;18.44;100.00;97425.72;5081108;28;20032;-79
2021/07/18 03:52:07;;;;;;;9.82;5.78;;;;;;;18.66;100.00;97432.59;5079865;28;20070;-79
2021/07/18 03:54:32;;;;;;;5.20;4.57;;;;;;;18.59;100.00;97436.00;5080674;28;20043;-79
2021/07/18 03:56:58;;;;;;;5.95;5.13;;;;;;;18.50;100.00;97442.88;5078971;28;20066;-79
2021/07/18 03:59:24;;;;;;;9.23;5.10;;;;;;;18.22;100.00;97445.72;5081983;28;22365;-80
2021/07/18 04:01:49;;;;;;;8.45;5.72;;;;;;;18.05;100.00;97441.34;5081077;28;20032;-79
2021/07/18 04:04:15;;;;;;;6.63;5.93;;;;;;;18.01;100.00;97457.03;5081949;28;20598;-78
2021/07/18 04:06:40;;;;;;;9.35;5.30;;;;;;;18.01;100.00;97468.13;5079214;28;20036;-80
2021/07/18 04:09:06;;;;;;;10.98;6.97;;;;;;;17.95;100.00;97469.53;5081497;28;20020;-79
2021/07/18 04:11:31;;;;;;;7.95;6.53;;;;;;;17.94;100.00;97467.16;5081528;28;20016;-78
2021/07/18 04:13:57;;;;;;;10.63;7.32;;;;;;;17.92;100.00;97480.50;5082637;28;20037;-80
2021/07/18 04:16:22;;;;;;;8.07;6.45;;;;;;;17.98;100.00;97479.91;5079341;28;20495;-82
2021/07/18 04:18:47;;;;;;;11.27;6.45;;;;;;;17.90;100.00;97482.84;5081726;28;20085;-79
2021/07/18 04:21:19;;;;;;;10.77;5.95;;;;;;;18.03;100.00;97498.22;5082096;28;20023;-79
2021/07/18 04:23:44;;;;;;;8.43;5.80;;;;;;;18.03;100.00;97503.75;5081425;28;20035;-78
2021/07/18 04:26:10;;;;;;;8.90;6.30;;;;;;;17.98;100.00;97510.34;5080023;28;20025;-78
2021/07/18 04:28:35;;;;;;;8.63;6.65;;;;;;;18.12;100.00;97521.00;5087945;28;20401;-78
2021/07/18 04:31:00;;;;;;;8.18;5.75;;;;;;;18.22;100.00;97523.25;5080380;28;20486;-78
2021/07/18 04:33:26;;;;;;;6.57;5.85;;;;;;;18.38;100.00;97526.03;5080686;28;20569;-79
2021/07/18 04:35:51;;;;;;;7.75;5.45;;;;;;;18.28;100.00;97513.53;5079923;28;20465;-78
2021/07/18 04:38:16;;;;;;;6.35;5.63;;;;;;;18.38;100.00;97514.97;5078856;28;20040;-78
2021/07/18 04:40:42;;;;;;;8.02;5.70;;;;;;;18.53;100.00;97523.31;5079815;28;20027;-78
2021/07/18 04:43:07;;;;;;;9.10;5.55;;;;;;;18.50;100.00;97532.34;5078923;28;20055;-78
2021/07/18 04:45:33;;;;;;;9.85;5.68;;;;;;;18.57;100.00;97528.94;5079812;28;20071;-79
2021/07/18 04:47:58;;;;;;;9.02;5.43;;;;;;;18.63;100.00;97536.63;5077196;28;20499;-78
2021/07/18 04:50:26;;;;;;;10.00;5.88;;;;;;;18.56;100.00;97543.94;5080394;28;20020;-78
2021/07/18 04:52:52;;;;;;;8.30;6.15;;;;;;;18.71;100.00;97540.38;5077957;28;20027;-78
2021/07/18 04:55:18;;;;;;;11.13;6.55;;;;;;;18.81;100.00;97519.63;5080575;28;20027;-77
2021/07/18 04:57:45;;;;;;;10.30;6.07;;;;;;;18.77;100.00;97516.75;5078810;28;20029;-77
2021/07/18 05:00:16;;;;;;;10.00;5.90;;;;;;;18.77;100.00;97505.66;5079844;28;20058;-78
2021/07/18 05:02:41;;;;;;;8.45;6.05;;;;;;;18.71;100.00;97501.56;5082046;28;20028;-77
2021/07/18 05:05:08;;;;;;;12.60;5.75;;;;;;;18.62;100.00;97499.00;5085163;28;20518;-79
2021/07/18 05:07:50;;;;;;;9.85;5.97;;;;;;;18.64;100.00;97495.84;5079481;28;20020;-79
2021/07/18 05:10:17;;;;;;;9.23;5.50;;;;;;;18.66;100.00;97499.09;5081607;28;20111;-77
2021/07/18 05:12:44;;;;;;;8.65;6.45;;;;;;;18.63;100.00;97506.16;5083913;28;20567;-78
2021/07/18 05:15:11;;;;;;;9.18;5.80;;;;;;;18.87;100.00;97513.44;5089736;28;20036;-79
2021/07/18 05:17:36;;;;;;;9.48;6.20;;;;;;;18.86;100.00;97522.91;5090398;28;20028;-77
2021/07/18 05:20:03;;;;;;;13.35;6.10;;;;;;;18.69;100.00;97528.84;5090157;28;20471;-79
2021/07/18 05:22:28;;;;;;;10.15;5.88;;;;;;;18.82;100.00;97541.44;5089640;28;20073;-78
2021/07/18 05:24:53;;;;;;;7.00;6.07;;;;;;;18.70;100.00;97541.53;5085655;28;20423;-78
2021/07/18 05:27:20;;;;;;;7.65;5.80;;;;;;;18.60;100.00;97519.91;5094731;28;20397;-82
2021/07/18 05:29:46;;;;;;;10.32;5.18;;;;;;;18.75;100.00;97532.94;5093674;28;20028;-80
2021/07/18 05:32:11;;;;;;;7.22;5.85;;;;;;;18.69;100.00;97528.84;5090072;28;20024;-80
2021/07/18 05:34:38;;;;;;;7.25;6.00;;;;;;;18.63;100.00;97524.75;5093980;28;20026;-81
2021/07/18 05:37:04;;;;;;;12.02;6.03;;;;;;;18.74;100.00;97528.56;5096816;28;20028;-79
2021/07/18 05:39:29;;;;;;;7.15;6.05;;;;;;;18.71;100.00;97519.00;5089972;28;20476;-80
2021/07/18 05:41:55;;;;;;;7.10;5.88;;;;;;;18.88;100.00;97540.00;5089826;28;20077;-77
2021/07/18 05:44:21;;;;;;;8.85;5.40;;;;;;;19.16;100.00;97542.63;5089730;28;20068;-79
2021/07/18 05:46:46;;;;;;;9.35;5.80;;;;;;;19.25;100.00;97541.28;5082089;28;20032;-79
2021/07/18 05:49:12;;;;;;;6.05;5.32;;;;;;;19.36;100.00;97546.25;5068423;28;20040;-79
2021/07/18 05:51:37;;;;;;;10.77;6.10;;;;;;;19.03;100.00;97519.75;5069476;28;20127;-80
2021/07/18 05:54:02;;;;;;;10.48;5.47;;;;;;;18.97;100.00;97532.31;5069325;28;20534;-79
2021/07/18 05:56:28;;;;;;;6.53;5.65;;;;;;;19.03;100.00;97530.84;5070813;28;20039;-78
2021/07/18 05:58:53;;;;;;;7.93;6.78;;;;;;;19.06;100.00;97535.69;5086263;28;20027;-78
2021/07/18 06:01:18;;;;;;;12.00;5.65;;;;;;;19.08;100.00;97538.88;5089895;28;20059;-79
2021/07/18 06:03:44;;;;;;;8.32;6.78;;;;;;;19.07;100.00;97531.75;5089219;28;20028;-79
2021/07/18 06:06:09;;;;;;;8.15;6.00;;;;;;;19.03;100.00;97575.22;5089729;28;20024;-78
2021/07/18 06:08:35;;;;;;;8.80;6.10;;;;;;;18.81;100.00;97605.53;5088653;28;20085;-80
2021/07/18 06:11:00;;;;;;;15.73;6.40;;;;;;;18.72;100.00;97627.88;5089371;28;20020;-78
2021/07/18 06:13:25;;;;;;;7.20;6.50;;;;;;;18.61;100.00;97599.09;5088984;28;20024;-80
2021/07/18 06:15:51;;;;;;;11.85;6.72;;;;;;;18.53;100.00;97561.28;5086856;28;20043;-82
2021/07/18 06:18:16;;;;;;;9.15;6.55;;;;;;;18.39;100.00;97569.19;5071851;28;20020;-85
2021/07/18 06:20:41;;;;;;;9.45;7.18;;;;;;;18.32;100.00;97566.25;5086629;28;20354;-79
2021/07/18 06:23:07;;;;;;;8.40;6.75;;;;;;;18.29;100.00;97558.66;5074481;28;20500;-79
2021/07/18 06:25:32;;;;;;;11.63;7.78;;;;;;;18.38;100.00;97575.91;5074873;28;20497;-81
2021/07/18 06:27:58;;;;;;;10.80;6.75;;;;;;;18.52;100.00;97584.59;5080237;28;20447;-79
2021/07/18 06:30:23;;;;;;;8.02;6.53;;;;;;;18.70;100.00;97594.19;5081170;28;20020;-80
2021/07/18 06:32:51;;;;;;;12.80;7.07;;;;;;;18.91;100.00;97588.38;5081390;28;20085;-81
2021/07/18 06:35:16;;;;;;;9.02;7.57;;;;;;;19.03;100.00;97596.59;5078957;28;20503;-80
2021/07/18 06:37:42;;;;;;;12.10;6.82;;;;;;;19.23;100.00;97571.31;5079412;28;20048;-80
2021/07/18 06:40:09;;;;;;;11.15;6.85;;;;;;;19.37;100.00;97567.28;5081841;28;20025;-81
2021/07/18 06:42:35;;;;;;;79.50;54.50;;;;;;;19.79;100.00;97565.47;5084500;28;20055;-79
2021/07/18 06:45:01;;;;;;;15.20;7.85;;;;;;;20.36;100.00;97570.19;5088211;28;20028;-83
2021/07/18 06:47:27;;;;;;;43.22;30.48;;;;;;;20.87;100.00;97569.88;5090597;28;20032;-81
2021/07/18 06:49:54;;;;;;;15.27;10.05;;;;;;;21.18;100.00;97581.56;5080289;28;20533;-88
2021/07/18 06:52:20;;;;;;;8.93;7.15;;;;;;;21.22;100.00;97576.84;5078831;28;20500;-86
2021/07/18 06:54:46;;;;;;;7.20;5.00;;;;;;;21.14;100.00;97583.50;5078889;28;20032;-83
2021/07/18 06:57:11;;;;;;;11.70;5.05;;;;;;;20.86;100.00;97569.09;5075306;28;20024;-83
2021/07/18 06:59:36;;;;;;;5.25;4.30;;;;;;;20.96;99.89;97576.78;5079175;28;20032;-79
2021/07/18 07:02:02;;;;;;;7.28;4.68;;;;;;;21.16;100.00;97572.78;5079868;28;20021;-79
2021/07/18 07:04:28;;;;;;;11.98;4.97;;;;;;;21.33;99.93;97574.25;5076282;28;20484;-79
2021/07/18 07:06:53;;;;;;;7.47;4.50;;;;;;;21.58;98.36;97571.81;5079310;28;20024;-79
2021/07/18 07:09:18;;;;;;;8.23;4.97;;;;;;;21.72;96.43;97583.13;5077943;28;20389;-77
2021/07/18 07:11:44;;;;;;;13.93;6.65;;;;;;;22.00;96.47;97580.75;5083552;28;20055;-78
2021/07/18 07:14:09;;;;;;;6.18;4.82;;;;;;;22.11;94.65;97584.50;5083862;28;20107;-83
2021/07/18 07:16:36;;;;;;;5.40;4.03;;;;;;;22.74;91.26;97586.38;5083017;28;20028;-82
2021/07/18 07:19:03;;;;;;;4.40;4.00;;;;;;;22.45;89.45;97596.41;5085046;28;20069;-80
2021/07/18 07:21:29;;;;;;;7.53;4.78;;;;;;;22.60;89.62;97592.59;5083307;28;20397;-82
2021/07/18 07:23:55;;;;;;;7.20;3.90;;;;;;;22.72;90.08;97583.16;5085726;28;20027;-81
2021/07/18 07:26:20;;;;;;;9.80;3.92;;;;;;;22.85;88.76;97587.28;5083448;28;20025;-82
2021/07/18 07:28:47;;;;;;;9.77;4.43;;;;;;;22.61;88.48;97583.03;5083701;28;20028;-82
2021/07/18 07:31:13;;;;;;;4.55;3.67;;;;;;;23.06;87.21;97581.88;5082449;28;20091;-81
2021/07/18 07:33:38;;;;;;;7.80;3.85;;;;;;;23.18;86.00;97578.78;5085275;28;20020;-83
2021/07/18 07:36:05;;;;;;;7.40;4.32;;;;;;;22.90;83.77;97573.75;5086527;28;20017;-80
2021/07/18 07:38:31;;;;;;;5.72;4.03;;;;;;;22.99;86.96;97573.47;5083238;28;20036;-85
2021/07/18 07:40:57;;;;;;;8.35;4.15;;;;;;;23.34;83.36;97568.13;5088657;28;20078;-80
2021/07/18 07:43:23;;;;;;;4.93;4.22;;;;;;;23.93;79.49;97564.09;5082588;28;20020;-78
2021/07/18 07:45:50;;;;;;;7.30;4.20;;;;;;;23.70;79.43;97557.22;5082222;28;20090;-79
2021/07/18 07:48:15;;;;;;;7.07;4.32;;;;;;;24.07;78.34;97565.34;5082583;28;20055;-79
2021/07/18 07:50:42;;;;;;;9.20;4.90;;;;;;;23.92;79.86;97567.31;5086996;28;20055;-82
2021/07/18 07:53:07;;;;;;;4.55;4.15;;;;;;;23.98;75.48;97566.53;5096473;28;20048;-84
2021/07/18 07:55:33;;;;;;;4.63;3.78;;;;;;;24.14;74.35;97580.22;5087971;28;20032;-79
2021/07/18 07:57:59;;;;;;;5.10;4.35;;;;;;;23.59;75.87;97562.72;5083120;28;20024;-78
2021/07/18 08:00:25;;;;;;;5.20;4.07;;;;;;;24.04;74.63;97569.75;5082260;28;20035;-79
2021/07/18 08:02:51;;;;;;;4.80;4.30;;;;;;;24.26;74.86;97568.66;5081305;28;20024;-84
2021/07/18 08:05:20;;;;;;;6.93;4.85;;;;;;;24.32;72.37;97561.50;5088917;28;20039;-80
2021/07/18 08:07:46;;;;;;;7.72;3.63;;;;;;;24.40;71.25;97553.94;5083702;28;20045;-83
2021/07/18 08:10:14;;;;;;;4.75;3.83;;;;;;;24.36;70.49;97553.91;5083511;28;20524;-80
2021/07/18 08:12:41;;;;;;;6.25;4.55;;;;;;;24.87;68.52;97548.00;5077904;28;20038;-84
2021/07/18 08:15:08;;;;;;;5.40;4.35;;;;;;;25.47;69.44;97550.75;5081970;28;20021;-87
2021/07/18 08:17:35;;;;;;;4.38;3.88;;;;;;;25.14;68.48;97548.41;5083953;28;20499;-83
2021/07/18 08:20:03;;;;;;;7.88;4.18;;;;;;;25.49;68.73;97550.41;5083777;28;20036;-82
2021/07/18 08:22:28;;;;;;;6.15;4.30;;;;;;;26.76;62.19;97547.03;5093943;28;20061;-87
2021/07/18 08:24:53;;;;;;;5.10;3.83;;;;;;;27.53;58.76;97556.88;5089921;28;20055;-87
2021/07/18 08:27:19;;;;;;;6.30;4.18;;;;;;;28.95;54.59;97561.50;5091154;28;20035;-82
2021/07/18 08:29:45;;;;;;;4.10;3.50;;;;;;;28.63;54.97;97572.44;5086546;28;20044;-82
2021/07/18 08:32:10;;;;;;;4.63;3.70;;;;;;;27.65;57.59;97564.78;5079023;28;20024;-79
2021/07/18 08:34:36;;;;;;;3.85;3.53;;;;;;;26.72;59.73;97559.50;5072027;28;20032;-78
2021/07/18 08:37:01;;;;;;;7.40;4.30;;;;;;;28.33;55.05;97553.53;5072372;28;20370;-78
2021/07/18 08:39:27;;;;;;;6.35;3.60;;;;;;;29.17;51.41;97545.84;5072182;28;20029;-79
2021/07/18 08:41:54;;;;;;;5.25;3.80;;;;;;;28.98;52.02;97528.84;5070890;28;20111;-79
2021/07/18 08:44:22;;;;;;;4.03;3.25;;;;;;;28.44;54.60;97531.69;5078101;28;20028;-80
2021/07/18 08:46:48;;;;;;;3.70;3.30;;;;;;;29.58;52.38;97533.47;5079395;28;20075;-76
2021/07/18 08:49:14;;;;;;;5.18;3.83;;;;;;;29.72;52.01;97525.56;5072869;28;20058;-79
2021/07/18 08:51:40;;;;;;;4.85;3.95;;;;;;;29.84;49.03;97520.50;5078900;28;20028;-76
2021/07/18 08:54:05;;;;;;;6.72;3.58;;;;;;;29.96;51.72;97517.03;5090918;28;20392;-80
2021/07/18 08:56:32;;;;;;;4.95;3.35;;;;;;;30.06;51.48;97504.75;5089058;28;20035;-80
2021/07/18 08:59:10;;;;;;;4.32;3.92;;;;;;;31.29;46.85;97506.72;5090394;28;20120;-77
2021/07/18 09:01:42;;;;;;;3.97;3.00;;;;;;;32.59;46.37;97496.56;5091038;28;20115;-74
2021/07/18 09:04:08;;;;;;;3.20;2.80;;;;;;;32.12;43.20;97502.00;5090563;28;20480;-77
2021/07/18 09:06:45;;;;;;;3.83;3.42;;;;;;;31.68;42.97;97500.03;5090726;28;20035;-77
2021/07/18 09:09:14;;;;;;;5.00;3.00;;;;;;;32.48;41.56;97500.94;5090682;28;20031;-76
2021/07/18 09:11:41;;;;;;;3.58;3.28;;;;;;;31.77;42.24;97495.31;5095118;28;20046;-76
2021/07/18 09:14:08;;;;;;;5.97;3.63;;;;;;;33.51;38.92;97493.50;5095847;28;20059;-78
2021/07/18 09:16:36;;;;;;;4.90;3.17;;;;;;;32.80;40.26;97480.88;5090297;28;20350;-77
2021/07/18 09:19:30;;;;;;;4.90;3.28;;;;;;;33.47;39.14;97481.47;5094975;28;20028;-76
2021/07/18 09:22:22;;;;;;;3.65;3.30;;;;;;;33.05;38.93;97478.03;5090404;28;20016;-79
2021/07/18 09:24:54;;;;;;;4.47;3.85;;;;;;;32.61;40.80;97482.72;5090176;28;20519;-78
2021/07/18 09:27:32;;;;;;;5.57;3.78;;;;;;;33.42;39.35;97484.91;5094866;28;20024;-79
2021/07/18 09:30:08;;;;;;;5.75;3.50;;;;;;;32.77;40.67;97485.44;5099879;28;20139;-76
2021/07/18 09:32:35;;;;;;;4.07;3.17;;;;;;;33.99;38.19;97480.03;5100387;28;20028;-77
2021/07/18 09:35:03;;;;;;;4.05;2.88;;;;;;;33.56;39.24;97489.25;5096762;28;20024;-78
2021/07/18 09:37:34;;;;;;;3.90;3.50;;;;;;;35.06;36.73;97491.63;5094877;28;20040;-78
2021/07/18 09:40:00;;;;;;;5.07;3.10;;;;;;;32.19;41.42;97484.81;5093940;28;20078;-75
2021/07/18 09:42:32;;;;;;;3.22;2.90;;;;;;;31.94;42.20;97486.75;5091155;28;20077;-78
2021/07/18 09:44:58;;;;;;;6.72;3.80;;;;;;;31.97;42.53;97486.66;5090142;28;20024;-78
2021/07/18 09:47:23;;;;;;;4.10;3.70;;;;;;;30.71;45.99;97488.75;5090215;28;20123;-77
2021/07/18 09:49:49;;;;;;;4.68;3.92;;;;;;;29.60;48.53;97480.28;5091125;28;20429;-77
2021/07/18 09:52:23;;;;;;;4.15;3.45;;;;;;;29.76;48.34;97502.88;5089894;28;20069;-77
2021/07/18 09:54:51;;;;;;;3.77;3.17;;;;;;;30.16;46.98;97492.44;5089587;28;20024;-74
2021/07/18 09:57:37;;;;;;;6.72;4.47;;;;;;;31.35;44.12;97504.16;5089495;28;20115;-76
2021/07/18 10:00:09;;;;;;;3.30;3.00;;;;;;;31.82;44.11;97511.75;5089683;28;20385;-77
2021/07/18 10:02:34;;;;;;;7.20;3.70;;;;;;;31.20;45.36;97501.66;5090387;28;20060;-79
2021/07/18 10:05:00;;;;;;;6.85;3.55;;;;;;;29.43;49.66;97523.69;5090856;28;20063;-78
2021/07/18 10:07:34;;;;;;;6.82;4.82;;;;;;;27.44;54.21;97531.25;5091172;28;20472;-76
2021/07/18 10:10:03;;;;;;;10.33;4.73;;;;;;;27.06;57.83;97538.03;5103338;28;20050;-75
2021/07/18 10:12:29;;;;;;;6.97;3.97;;;;;;;26.35;59.93;97521.66;5094078;28;20055;-75
2021/07/18 10:14:57;;;;;;;6.20;5.60;;;;;;;26.06;61.93;97520.97;5091206;28;20028;-75
2021/07/18 10:17:23;;;;;;;6.00;5.07;;;;;;;25.53;64.34;97537.97;5090724;28;20422;-76
2021/07/18 10:19:48;;;;;;;7.43;5.50;;;;;;;25.27;66.43;97532.81;5089120;28;20028;-75
2021/07/18 10:22:15;;;;;;;6.43;5.80;;;;;;;24.86;68.28;97543.63;5089940;28;20039;-75
2021/07/18 10:24:41;;;;;;;15.70;5.40;;;;;;;24.34;69.72;97553.50;5090093;28;20020;-74
2021/07/18 10:27:06;;;;;;;6.97;5.55;;;;;;;24.31;68.85;97548.69;5089065;28;20488;-75
2021/07/18 10:29:32;;;;;;;7.43;4.93;;;;;;;24.08;69.10;97553.78;5089174;28;20028;-73
2021/07/18 10:32:04;;;;;;;9.95;5.47;;;;;;;24.19;69.27;97549.06;5090771;28;20036;-77
2021/07/18 10:34:34;;;;;;;6.93;5.65;;;;;;;24.12;69.05;97557.41;5090213;28;20123;-74
2021/07/18 10:37:00;;;;;;;7.65;5.15;;;;;;;23.99;68.98;97562.53;5088946;28;20377;-75
2021/07/18 10:39:35;;;;;;;6.90;5.03;;;;;;;23.91;69.10;97576.88;5089344;28;20020;-79
2021/07/18 10:42:04;;;;;;;5.63;4.95;;;;;;;23.74;70.01;97608.31;5088942;28;20020;-74
2021/07/18 10:44:41;;;;;;;7.55;4.85;;;;;;;23.57;70.75;97611.78;5088660;28;20493;-74
2021/07/18 10:47:06;;;;;;;7.43;4.78;;;;;;;23.30;67.24;97600.81;5089639;28;20024;-75
2021/07/18 10:49:47;;;;;;;16.42;4.57;;;;;;;23.04;68.47;97594.63;5089249;28;20404;-74
2021/07/18 10:52:13;;;;;;;8.35;2.85;;;;;;;21.67;73.48;97566.78;5089634;28;20043;-76
2021/07/18 10:54:43;;;;;;;4.47;3.58;;;;;;;20.61;79.81;97548.41;5089966;28;20046;-74
2021/07/18 10:57:29;;;;;;;3.63;2.97;;;;;;;20.37;80.78;97541.22;5090439;28;20142;-75
2021/07/18 10:59:56;;;;;;;6.90;3.83;;;;;;;20.21;82.08;97535.75;5089342;28;20024;-77
2021/07/18 11:02:32;;;;;;;7.25;3.50;;;;;;;20.12;83.91;97535.19;5089353;28;20388;-76
2021/07/18 11:04:58;;;;;;;5.10;3.58;;;;;;;20.25;83.52;97546.94;5090460;28;20149;-74
2021/07/18 11:07:28;;;;;;;9.63;4.18;;;;;;;20.21;84.31;97551.59;5090515;28;20090;-75
2021/07/18 11:10:01;;;;;;;10.63;3.83;;;;;;;20.28;85.13;97580.38;5089145;28;20024;-76
2021/07/18 11:12:32;;;;;;;6.25;4.03;;;;;;;20.47;85.69;97578.72;5090274;28;20050;-76
2021/07/18 11:15:16;;;;;;;7.80;4.85;;;;;;;20.53;83.05;97574.47;5088834;28;20028;-75
2021/07/18 11:18:04;;;;;;;7.55;4.55;;;;;;;20.39;86.95;97588.09;5088645;28;20013;-76
2021/07/18 11:20:48;;;;;;;7.65;4.35;;;;;;;20.26;89.71;97607.72;5090479;28;20028;-76
2021/07/18 11:23:47;;;;;;;5.20;3.72;;;;;;;19.97;88.41;97613.03;5090232;28;20610;-75